sensor_id;sensor_type;location;lat;lon;timestamp;P1;durP1;ratioP1;P2;durP2;ratioP2
50549;SDS011;36505;52.512;13.460;2023-07-02T00:01:42;3.08;;;1.38;;
50549;SDS011;36505;52.512;13.460;2023-07-02T00:04:08;1.70;;;1.27;;
50549;SDS011;36505;52.512;13.460;2023-07-02T00:06:34;5.00;;;1.23;;
50549;SDS011;36505;52.512;13.460;2023-07-02T00:09:05;2.20;;;1.38;;
50549;SDS011;36505;52.512;13.460;2023-07-02T00:11:35;3.60;;;1.10;;
50549;SDS011;36505;52.512;13.460;2023-07-02T00:14:00;2.03;;;1.30;;
50549;SDS011;36505;52.512;13.460;2023-07-02T00:16:26;1.42;;;1.10;;
50549;SDS011;36505;52.512;13.460;2023-07-02T00:18:51;1.83;;;1.58;;
50549;SDS011;36505;52.512;13.460;2023-07-02T00:21:20;4.90;;;1.73;;
50549;SDS011;36505;52.512;13.460;2023-07-02T00:23:46;1.70;;;1.48;;
50549;SDS011;36505;52.512;13.460;2023-07-02T00:26:12;2.20;;;1.42;;
50549;SDS011;36505;52.512;13.460;2023-07-02T00:28:38;2.00;;;1.60;;
50549;SDS011;36505;52.512;13.460;2023-07-02T00:31:04;4.10;;;1.50;;
50549;SDS011;36505;52.512;13.460;2023-07-02T00:33:30;2.33;;;1.50;;
50549;SDS011;36505;52.512;13.460;2023-07-02T00:35:57;7.05;;;1.85;;
50549;SDS011;36505;52.512;13.460;2023-07-02T00:38:22;2.88;;;1.40;;
50549;SDS011;36505;52.512;13.460;2023-07-02T00:40:48;2.47;;;1.75;;
50549;SDS011;36505;52.512;13.460;2023-07-02T00:43:13;1.73;;;1.42;;
50549;SDS011;36505;52.512;13.460;2023-07-02T00:45:39;3.72;;;1.67;;
50549;SDS011;36505;52.512;13.460;2023-07-02T00:48:05;2.70;;;1.83;;
50549;SDS011;36505;52.512;13.460;2023-07-02T00:50:31;3.90;;;2.08;;
50549;SDS011;36505;52.512;13.460;2023-07-02T00:52:56;1.60;;;1.48;;
50549;SDS011;36505;52.512;13.460;2023-07-02T00:55:22;3.60;;;1.98;;
50549;SDS011;36505;52.512;13.460;2023-07-02T00:57:47;1.98;;;1.67;;
50549;SDS011;36505;52.512;13.460;2023-07-02T01:00:14;3.80;;;1.60;;
50549;SDS011;36505;52.512;13.460;2023-07-02T01:02:40;2.40;;;1.65;;
50549;SDS011;36505;52.512;13.460;2023-07-02T01:08:03;2.47;;;1.80;;
50549;SDS011;36505;52.512;13.460;2023-07-02T01:10:30;3.75;;;2.03;;
50549;SDS011;36505;52.512;13.460;2023-07-02T01:12:57;4.60;;;1.85;;
50549;SDS011;36505;52.512;13.460;2023-07-02T01:15:28;2.95;;;1.98;;
50549;SDS011;36505;52.512;13.460;2023-07-02T01:17:54;4.18;;;2.00;;
50549;SDS011;36505;52.512;13.460;2023-07-02T01:20:21;2.38;;;1.98;;
50549;SDS011;36505;52.512;13.460;2023-07-02T01:22:48;3.10;;;2.13;;
50549;SDS011;36505;52.512;13.460;2023-07-02T01:25:16;4.50;;;2.17;;
50549;SDS011;36505;52.512;13.460;2023-07-02T01:27:49;4.53;;;2.22;;
50549;SDS011;36505;52.512;13.460;2023-07-02T01:30:15;3.20;;;2.28;;
50549;SDS011;36505;52.512;13.460;2023-07-02T01:32:41;5.22;;;2.20;;
50549;SDS011;36505;52.512;13.460;2023-07-02T01:35:07;6.85;;;2.75;;
50549;SDS011;36505;52.512;13.460;2023-07-02T01:37:33;7.32;;;2.70;;
50549;SDS011;36505;52.512;13.460;2023-07-02T01:40:05;6.20;;;2.75;;
50549;SDS011;36505;52.512;13.460;2023-07-02T01:42:31;4.53;;;2.90;;
50549;SDS011;36505;52.512;13.460;2023-07-02T01:44:57;4.03;;;2.63;;
50549;SDS011;36505;52.512;13.460;2023-07-02T01:47:23;4.88;;;3.10;;
50549;SDS011;36505;52.512;13.460;2023-07-02T01:49:49;5.15;;;2.53;;
50549;SDS011;36505;52.512;13.460;2023-07-02T01:52:18;4.80;;;2.80;;
50549;SDS011;36505;52.512;13.460;2023-07-02T01:54:44;4.07;;;2.65;;
50549;SDS011;36505;52.512;13.460;2023-07-02T01:57:10;5.00;;;2.88;;
50549;SDS011;36505;52.512;13.460;2023-07-02T01:59:35;5.10;;;2.88;;
50549;SDS011;36505;52.512;13.460;2023-07-02T02:02:01;4.63;;;2.60;;
50549;SDS011;36505;52.512;13.460;2023-07-02T02:04:26;4.13;;;3.50;;
50549;SDS011;36505;52.512;13.460;2023-07-02T02:06:52;7.50;;;3.28;;
50549;SDS011;36505;52.512;13.460;2023-07-02T02:09:20;6.85;;;3.05;;
50549;SDS011;36505;52.512;13.460;2023-07-02T02:11:49;5.82;;;3.72;;
50549;SDS011;36505;52.512;13.460;2023-07-02T02:14:16;4.40;;;3.22;;
50549;SDS011;36505;52.512;13.460;2023-07-02T02:16:42;8.55;;;4.10;;
50549;SDS011;36505;52.512;13.460;2023-07-02T02:19:10;7.38;;;3.42;;
50549;SDS011;36505;52.512;13.460;2023-07-02T02:21:35;5.75;;;3.55;;
50549;SDS011;36505;52.512;13.460;2023-07-02T02:24:01;6.97;;;3.80;;
50549;SDS011;36505;52.512;13.460;2023-07-02T02:26:26;6.00;;;3.38;;
50549;SDS011;36505;52.512;13.460;2023-07-02T02:28:52;5.63;;;2.92;;
50549;SDS011;36505;52.512;13.460;2023-07-02T02:31:17;4.72;;;3.30;;
50549;SDS011;36505;52.512;13.460;2023-07-02T02:33:43;6.65;;;3.38;;
50549;SDS011;36505;52.512;13.460;2023-07-02T02:36:08;4.75;;;2.90;;
50549;SDS011;36505;52.512;13.460;2023-07-02T02:38:34;7.28;;;3.10;;
50549;SDS011;36505;52.512;13.460;2023-07-02T02:41:00;6.00;;;3.33;;
50549;SDS011;36505;52.512;13.460;2023-07-02T02:43:26;4.63;;;2.80;;
50549;SDS011;36505;52.512;13.460;2023-07-02T02:45:52;4.20;;;2.88;;
50549;SDS011;36505;52.512;13.460;2023-07-02T02:48:17;4.22;;;3.20;;
50549;SDS011;36505;52.512;13.460;2023-07-02T02:50:42;5.50;;;3.22;;
50549;SDS011;36505;52.512;13.460;2023-07-02T02:53:08;5.70;;;3.05;;
50549;SDS011;36505;52.512;13.460;2023-07-02T02:55:35;6.63;;;2.95;;
50549;SDS011;36505;52.512;13.460;2023-07-02T02:58:01;3.72;;;2.90;;
50549;SDS011;36505;52.512;13.460;2023-07-02T03:00:26;3.17;;;2.78;;
50549;SDS011;36505;52.512;13.460;2023-07-02T03:02:51;3.38;;;3.05;;
50549;SDS011;36505;52.512;13.460;2023-07-02T03:05:17;4.03;;;2.70;;
50549;SDS011;36505;52.512;13.460;2023-07-02T03:07:42;5.78;;;3.33;;
50549;SDS011;36505;52.512;13.460;2023-07-02T03:10:08;6.25;;;3.05;;
50549;SDS011;36505;52.512;13.460;2023-07-02T03:12:33;4.25;;;2.78;;
50549;SDS011;36505;52.512;13.460;2023-07-02T03:14:59;5.50;;;3.08;;
50549;SDS011;36505;52.512;13.460;2023-07-02T03:17:24;4.35;;;2.80;;
50549;SDS011;36505;52.512;13.460;2023-07-02T03:19:49;5.93;;;3.17;;
50549;SDS011;36505;52.512;13.460;2023-07-02T03:22:15;4.25;;;2.70;;
50549;SDS011;36505;52.512;13.460;2023-07-02T03:24:41;5.68;;;3.10;;
50549;SDS011;36505;52.512;13.460;2023-07-02T03:27:06;6.57;;;2.90;;
50549;SDS011;36505;52.512;13.460;2023-07-02T03:29:33;3.55;;;2.50;;
50549;SDS011;36505;52.512;13.460;2023-07-02T03:31:59;7.25;;;2.75;;
50549;SDS011;36505;52.512;13.460;2023-07-02T03:34:24;5.78;;;3.38;;
50549;SDS011;36505;52.512;13.460;2023-07-02T03:36:50;9.23;;;3.20;;
50549;SDS011;36505;52.512;13.460;2023-07-02T03:39:15;5.30;;;3.00;;
50549;SDS011;36505;52.512;13.460;2023-07-02T03:41:42;7.00;;;2.85;;
50549;SDS011;36505;52.512;13.460;2023-07-02T03:44:08;6.20;;;2.92;;
50549;SDS011;36505;52.512;13.460;2023-07-02T03:46:34;3.20;;;2.60;;
50549;SDS011;36505;52.512;13.460;2023-07-02T03:49:00;3.03;;;2.15;;
50549;SDS011;36505;52.512;13.460;2023-07-02T03:51:25;3.17;;;2.20;;
50549;SDS011;36505;52.512;13.460;2023-07-02T03:53:50;7.72;;;2.65;;
50549;SDS011;36505;52.512;13.460;2023-07-02T03:56:16;6.38;;;2.90;;
50549;SDS011;36505;52.512;13.460;2023-07-02T03:58:41;4.97;;;2.50;;
50549;SDS011;36505;52.512;13.460;2023-07-02T04:01:07;3.55;;;2.20;;
50549;SDS011;36505;52.512;13.460;2023-07-02T04:03:32;4.40;;;2.50;;
50549;SDS011;36505;52.512;13.460;2023-07-02T04:05:58;5.20;;;2.50;;
50549;SDS011;36505;52.512;13.460;2023-07-02T04:08:23;5.88;;;2.63;;
50549;SDS011;36505;52.512;13.460;2023-07-02T04:10:50;3.40;;;2.00;;
50549;SDS011;36505;52.512;13.460;2023-07-02T04:13:15;4.57;;;2.10;;
50549;SDS011;36505;52.512;13.460;2023-07-02T04:15:40;5.85;;;2.67;;
50549;SDS011;36505;52.512;13.460;2023-07-02T04:18:06;5.40;;;2.22;;
50549;SDS011;36505;52.512;13.460;2023-07-02T04:20:31;5.50;;;2.00;;
50549;SDS011;36505;52.512;13.460;2023-07-02T04:22:57;6.15;;;2.10;;
50549;SDS011;36505;52.512;13.460;2023-07-02T04:25:22;4.88;;;2.35;;
50549;SDS011;36505;52.512;13.460;2023-07-02T04:27:48;4.53;;;2.22;;
50549;SDS011;36505;52.512;13.460;2023-07-02T04:30:14;5.93;;;2.13;;
50549;SDS011;36505;52.512;13.460;2023-07-02T04:32:40;3.33;;;2.35;;
50549;SDS011;36505;52.512;13.460;2023-07-02T04:35:06;3.92;;;2.63;;
50549;SDS011;36505;52.512;13.460;2023-07-02T04:37:35;4.88;;;2.10;;
50549;SDS011;36505;52.512;13.460;2023-07-02T04:40:00;3.75;;;1.70;;
50549;SDS011;36505;52.512;13.460;2023-07-02T04:42:26;3.20;;;2.05;;
50549;SDS011;36505;52.512;13.460;2023-07-02T04:44:57;4.63;;;2.60;;
50549;SDS011;36505;52.512;13.460;2023-07-02T04:47:27;5.18;;;2.50;;
50549;SDS011;36505;52.512;13.460;2023-07-02T04:49:53;3.85;;;2.42;;
50549;SDS011;36505;52.512;13.460;2023-07-02T04:52:18;5.43;;;1.92;;
50549;SDS011;36505;52.512;13.460;2023-07-02T04:54:43;8.35;;;2.42;;
50549;SDS011;36505;52.512;13.460;2023-07-02T04:57:09;6.43;;;2.15;;
50549;SDS011;36505;52.512;13.460;2023-07-02T04:59:34;6.13;;;2.53;;
50549;SDS011;36505;52.512;13.460;2023-07-02T05:01:59;3.22;;;1.90;;
50549;SDS011;36505;52.512;13.460;2023-07-02T05:04:25;4.03;;;2.10;;
50549;SDS011;36505;52.512;13.460;2023-07-02T05:06:50;3.60;;;1.77;;
50549;SDS011;36505;52.512;13.460;2023-07-02T05:09:15;4.45;;;2.00;;
50549;SDS011;36505;52.512;13.460;2023-07-02T05:11:41;2.50;;;1.83;;
50549;SDS011;36505;52.512;13.460;2023-07-02T05:14:06;4.15;;;2.00;;
50549;SDS011;36505;52.512;13.460;2023-07-02T05:16:31;5.10;;;2.03;;
50549;SDS011;36505;52.512;13.460;2023-07-02T05:18:57;4.65;;;2.42;;
50549;SDS011;36505;52.512;13.460;2023-07-02T05:21:22;4.55;;;2.10;;
50549;SDS011;36505;52.512;13.460;2023-07-02T05:23:48;10.80;;;2.00;;
50549;SDS011;36505;52.512;13.460;2023-07-02T05:26:13;5.63;;;2.13;;
50549;SDS011;36505;52.512;13.460;2023-07-02T05:28:39;2.47;;;2.08;;
50549;SDS011;36505;52.512;13.460;2023-07-02T05:31:04;6.55;;;2.10;;
50549;SDS011;36505;52.512;13.460;2023-07-02T05:33:29;3.28;;;1.90;;
50549;SDS011;36505;52.512;13.460;2023-07-02T05:35:57;6.47;;;2.20;;
50549;SDS011;36505;52.512;13.460;2023-07-02T05:38:22;5.35;;;2.30;;
50549;SDS011;36505;52.512;13.460;2023-07-02T05:40:48;8.40;;;2.33;;
50549;SDS011;36505;52.512;13.460;2023-07-02T05:43:13;5.10;;;2.58;;
50549;SDS011;36505;52.512;13.460;2023-07-02T05:45:38;8.27;;;2.28;;
50549;SDS011;36505;52.512;13.460;2023-07-02T05:48:04;5.70;;;2.47;;
50549;SDS011;36505;52.512;13.460;2023-07-02T05:50:29;6.68;;;2.00;;
50549;SDS011;36505;52.512;13.460;2023-07-02T05:52:55;5.25;;;2.10;;
50549;SDS011;36505;52.512;13.460;2023-07-02T05:55:20;6.55;;;2.30;;
50549;SDS011;36505;52.512;13.460;2023-07-02T05:57:46;5.57;;;2.10;;
50549;SDS011;36505;52.512;13.460;2023-07-02T06:00:11;6.97;;;2.15;;
50549;SDS011;36505;52.512;13.460;2023-07-02T06:02:37;4.03;;;1.83;;
50549;SDS011;36505;52.512;13.460;2023-07-02T06:05:02;6.00;;;2.08;;
50549;SDS011;36505;52.512;13.460;2023-07-02T06:07:28;4.78;;;2.00;;
50549;SDS011;36505;52.512;13.460;2023-07-02T06:09:54;5.18;;;1.80;;
50549;SDS011;36505;52.512;13.460;2023-07-02T06:12:20;5.22;;;2.50;;
50549;SDS011;36505;52.512;13.460;2023-07-02T06:14:46;4.93;;;1.83;;
50549;SDS011;36505;52.512;13.460;2023-07-02T06:17:11;5.65;;;1.90;;
50549;SDS011;36505;52.512;13.460;2023-07-02T06:19:37;5.03;;;2.10;;
50549;SDS011;36505;52.512;13.460;2023-07-02T06:22:03;4.93;;;1.92;;
50549;SDS011;36505;52.512;13.460;2023-07-02T06:24:28;3.42;;;1.88;;
50549;SDS011;36505;52.512;13.460;2023-07-02T06:26:54;6.93;;;1.85;;
50549;SDS011;36505;52.512;13.460;2023-07-02T06:29:21;5.32;;;2.03;;
50549;SDS011;36505;52.512;13.460;2023-07-02T06:31:47;5.30;;;1.80;;
50549;SDS011;36505;52.512;13.460;2023-07-02T06:34:13;3.22;;;1.90;;
50549;SDS011;36505;52.512;13.460;2023-07-02T06:36:39;7.03;;;2.28;;
50549;SDS011;36505;52.512;13.460;2023-07-02T06:39:04;5.78;;;2.17;;
50549;SDS011;36505;52.512;13.460;2023-07-02T06:41:30;3.63;;;2.00;;
50549;SDS011;36505;52.512;13.460;2023-07-02T06:46:24;5.65;;;2.40;;
50549;SDS011;36505;52.512;13.460;2023-07-02T06:48:50;4.75;;;2.00;;
50549;SDS011;36505;52.512;13.460;2023-07-02T06:51:15;6.95;;;2.70;;
50549;SDS011;36505;52.512;13.460;2023-07-02T06:53:42;6.03;;;2.17;;
50549;SDS011;36505;52.512;13.460;2023-07-02T06:56:07;5.07;;;2.15;;
50549;SDS011;36505;52.512;13.460;2023-07-02T06:58:34;6.28;;;2.30;;
50549;SDS011;36505;52.512;13.460;2023-07-02T07:00:59;6.20;;;2.45;;
50549;SDS011;36505;52.512;13.460;2023-07-02T07:03:25;6.15;;;2.13;;
50549;SDS011;36505;52.512;13.460;2023-07-02T07:05:50;4.82;;;1.50;;
50549;SDS011;36505;52.512;13.460;2023-07-02T07:08:15;5.85;;;2.15;;
50549;SDS011;36505;52.512;13.460;2023-07-02T07:10:41;5.07;;;1.95;;
50549;SDS011;36505;52.512;13.460;2023-07-02T07:13:06;4.60;;;2.20;;
50549;SDS011;36505;52.512;13.460;2023-07-02T07:15:32;5.90;;;2.75;;
50549;SDS011;36505;52.512;13.460;2023-07-02T07:18:00;7.75;;;2.20;;
50549;SDS011;36505;52.512;13.460;2023-07-02T07:20:25;4.38;;;2.45;;
50549;SDS011;36505;52.512;13.460;2023-07-02T07:22:51;5.70;;;2.00;;
50549;SDS011;36505;52.512;13.460;2023-07-02T07:25:16;9.18;;;2.70;;
50549;SDS011;36505;52.512;13.460;2023-07-02T07:27:41;4.72;;;2.10;;
50549;SDS011;36505;52.512;13.460;2023-07-02T07:30:07;5.15;;;1.88;;
50549;SDS011;36505;52.512;13.460;2023-07-02T07:32:35;6.80;;;2.03;;
50549;SDS011;36505;52.512;13.460;2023-07-02T07:35:01;8.23;;;2.40;;
50549;SDS011;36505;52.512;13.460;2023-07-02T07:37:26;3.35;;;2.35;;
50549;SDS011;36505;52.512;13.460;2023-07-02T07:39:51;5.45;;;2.30;;
50549;SDS011;36505;52.512;13.460;2023-07-02T07:42:17;5.22;;;2.58;;
50549;SDS011;36505;52.512;13.460;2023-07-02T07:44:44;6.28;;;2.55;;
50549;SDS011;36505;52.512;13.460;2023-07-02T07:47:10;4.25;;;2.03;;
50549;SDS011;36505;52.512;13.460;2023-07-02T07:49:36;7.35;;;2.45;;
50549;SDS011;36505;52.512;13.460;2023-07-02T07:52:01;4.70;;;2.30;;
50549;SDS011;36505;52.512;13.460;2023-07-02T07:54:28;7.85;;;3.30;;
50549;SDS011;36505;52.512;13.460;2023-07-02T07:56:54;4.22;;;2.10;;
50549;SDS011;36505;52.512;13.460;2023-07-02T07:59:19;5.70;;;2.60;;
50549;SDS011;36505;52.512;13.460;2023-07-02T08:01:44;4.45;;;2.40;;
50549;SDS011;36505;52.512;13.460;2023-07-02T08:04:11;4.07;;;2.08;;
50549;SDS011;36505;52.512;13.460;2023-07-02T08:06:37;7.40;;;2.00;;
50549;SDS011;36505;52.512;13.460;2023-07-02T08:09:02;6.05;;;2.28;;
50549;SDS011;36505;52.512;13.460;2023-07-02T08:11:28;3.97;;;2.28;;
50549;SDS011;36505;52.512;13.460;2023-07-02T08:13:53;3.10;;;1.83;;
50549;SDS011;36505;52.512;13.460;2023-07-02T08:16:19;5.32;;;2.17;;
50549;SDS011;36505;52.512;13.460;2023-07-02T08:18:44;7.35;;;3.40;;
50549;SDS011;36505;52.512;13.460;2023-07-02T08:21:10;8.40;;;2.97;;
50549;SDS011;36505;52.512;13.460;2023-07-02T08:23:36;4.65;;;2.30;;
50549;SDS011;36505;52.512;13.460;2023-07-02T08:26:02;5.10;;;2.15;;
50549;SDS011;36505;52.512;13.460;2023-07-02T08:28:28;6.20;;;2.22;;
50549;SDS011;36505;52.512;13.460;2023-07-02T08:30:53;5.43;;;2.22;;
50549;SDS011;36505;52.512;13.460;2023-07-02T08:33:19;6.20;;;2.10;;
50549;SDS011;36505;52.512;13.460;2023-07-02T08:35:45;7.22;;;2.90;;
50549;SDS011;36505;52.512;13.460;2023-07-02T08:38:10;5.45;;;2.65;;
50549;SDS011;36505;52.512;13.460;2023-07-02T08:40:36;9.50;;;2.47;;
50549;SDS011;36505;52.512;13.460;2023-07-02T08:43:01;10.80;;;3.05;;
50549;SDS011;36505;52.512;13.460;2023-07-02T08:45:26;5.18;;;2.63;;
50549;SDS011;36505;52.512;13.460;2023-07-02T08:47:52;6.40;;;3.10;;
50549;SDS011;36505;52.512;13.460;2023-07-02T08:50:23;7.13;;;3.13;;
50549;SDS011;36505;52.512;13.460;2023-07-02T08:52:49;4.75;;;2.75;;
50549;SDS011;36505;52.512;13.460;2023-07-02T08:55:14;10.73;;;3.50;;
50549;SDS011;36505;52.512;13.460;2023-07-02T08:57:40;7.00;;;3.40;;
50549;SDS011;36505;52.512;13.460;2023-07-02T09:00:14;6.25;;;3.25;;
50549;SDS011;36505;52.512;13.460;2023-07-02T09:02:40;10.57;;;3.33;;
50549;SDS011;36505;52.512;13.460;2023-07-02T09:05:05;10.00;;;3.75;;
50549;SDS011;36505;52.512;13.460;2023-07-02T09:07:31;5.45;;;3.00;;
50549;SDS011;36505;52.512;13.460;2023-07-02T09:09:57;8.23;;;3.72;;
50549;SDS011;36505;52.512;13.460;2023-07-02T09:14:53;9.18;;;3.72;;
50549;SDS011;36505;52.512;13.460;2023-07-02T09:17:20;5.00;;;2.93;;
50549;SDS011;36505;52.512;13.460;2023-07-02T09:19:51;6.47;;;2.85;;
50549;SDS011;36505;52.512;13.460;2023-07-02T09:22:16;8.67;;;3.03;;
50549;SDS011;36505;52.512;13.460;2023-07-02T09:24:50;5.82;;;3.40;;
50549;SDS011;36505;52.512;13.460;2023-07-02T09:27:17;13.32;;;3.88;;
50549;SDS011;36505;52.512;13.460;2023-07-02T09:29:42;11.48;;;3.65;;
50549;SDS011;36505;52.512;13.460;2023-07-02T09:32:08;7.18;;;4.00;;
50549;SDS011;36505;52.512;13.460;2023-07-02T09:34:34;8.23;;;3.63;;
50549;SDS011;36505;52.512;13.460;2023-07-02T09:37:01;11.18;;;3.88;;
50549;SDS011;36505;52.512;13.460;2023-07-02T09:39:29;8.18;;;3.92;;
50549;SDS011;36505;52.512;13.460;2023-07-02T09:41:56;8.13;;;3.70;;
50549;SDS011;36505;52.512;13.460;2023-07-02T09:44:26;10.15;;;4.00;;
50549;SDS011;36505;52.512;13.460;2023-07-02T09:47:01;7.47;;;3.60;;
50549;SDS011;36505;52.512;13.460;2023-07-02T09:49:27;8.98;;;3.70;;
50549;SDS011;36505;52.512;13.460;2023-07-02T09:51:58;8.02;;;4.60;;
50549;SDS011;36505;52.512;13.460;2023-07-02T09:54:25;12.27;;;4.57;;
50549;SDS011;36505;52.512;13.460;2023-07-02T09:56:51;11.48;;;4.28;;
50549;SDS011;36505;52.512;13.460;2023-07-02T09:59:16;8.95;;;3.88;;
50549;SDS011;36505;52.512;13.460;2023-07-02T10:01:42;11.00;;;4.10;;
50549;SDS011;36505;52.512;13.460;2023-07-02T10:04:11;10.90;;;4.60;;
50549;SDS011;36505;52.512;13.460;2023-07-02T10:06:55;9.07;;;4.03;;
50549;SDS011;36505;52.512;13.460;2023-07-02T10:09:34;14.77;;;4.85;;
50549;SDS011;36505;52.512;13.460;2023-07-02T10:12:18;13.05;;;6.47;;
50549;SDS011;36505;52.512;13.460;2023-07-02T10:14:44;10.77;;;4.65;;
50549;SDS011;36505;52.512;13.460;2023-07-02T10:17:10;10.02;;;4.93;;
50549;SDS011;36505;52.512;13.460;2023-07-02T10:19:35;10.68;;;5.03;;
50549;SDS011;36505;52.512;13.460;2023-07-02T10:22:01;10.55;;;5.13;;
50549;SDS011;36505;52.512;13.460;2023-07-02T10:24:28;22.23;;;5.25;;
50549;SDS011;36505;52.512;13.460;2023-07-02T10:27:00;13.55;;;4.80;;
50549;SDS011;36505;52.512;13.460;2023-07-02T10:29:28;10.48;;;4.80;;
50549;SDS011;36505;52.512;13.460;2023-07-02T10:31:54;10.20;;;4.60;;
50549;SDS011;36505;52.512;13.460;2023-07-02T10:34:34;14.15;;;4.97;;
50549;SDS011;36505;52.512;13.460;2023-07-02T10:37:00;11.50;;;5.15;;
50549;SDS011;36505;52.512;13.460;2023-07-02T10:39:28;10.73;;;4.43;;
50549;SDS011;36505;52.512;13.460;2023-07-02T10:42:03;12.52;;;4.65;;
50549;SDS011;36505;52.512;13.460;2023-07-02T10:44:32;14.38;;;4.80;;
50549;SDS011;36505;52.512;13.460;2023-07-02T10:46:58;11.77;;;4.93;;
50549;SDS011;36505;52.512;13.460;2023-07-02T10:49:29;10.55;;;4.65;;
50549;SDS011;36505;52.512;13.460;2023-07-02T10:52:00;10.20;;;4.45;;
50549;SDS011;36505;52.512;13.460;2023-07-02T10:54:26;12.52;;;4.45;;
50549;SDS011;36505;52.512;13.460;2023-07-02T10:56:56;16.55;;;5.15;;
50549;SDS011;36505;52.512;13.460;2023-07-02T10:59:23;12.48;;;5.32;;
50549;SDS011;36505;52.512;13.460;2023-07-02T11:01:50;10.80;;;5.15;;
50549;SDS011;36505;52.512;13.460;2023-07-02T11:04:16;12.70;;;5.15;;
50549;SDS011;36505;52.512;13.460;2023-07-02T11:06:41;12.82;;;5.15;;
50549;SDS011;36505;52.512;13.460;2023-07-02T11:09:15;12.27;;;4.90;;
50549;SDS011;36505;52.512;13.460;2023-07-02T11:12:00;15.25;;;5.07;;
50549;SDS011;36505;52.512;13.460;2023-07-02T11:14:26;15.23;;;5.55;;
50549;SDS011;36505;52.512;13.460;2023-07-02T11:17:04;10.80;;;5.18;;
50549;SDS011;36505;52.512;13.460;2023-07-02T11:19:31;16.13;;;5.38;;
50549;SDS011;36505;52.512;13.460;2023-07-02T11:21:58;16.00;;;4.85;;
50549;SDS011;36505;52.512;13.460;2023-07-02T11:26:53;14.70;;;5.55;;
50549;SDS011;36505;52.512;13.460;2023-07-02T11:29:19;12.35;;;5.03;;
50549;SDS011;36505;52.512;13.460;2023-07-02T11:31:45;11.73;;;5.13;;
50549;SDS011;36505;52.512;13.460;2023-07-02T11:34:15;16.70;;;6.38;;
50549;SDS011;36505;52.512;13.460;2023-07-02T11:36:41;15.43;;;5.50;;
50549;SDS011;36505;52.512;13.460;2023-07-02T11:39:07;16.70;;;6.03;;
50549;SDS011;36505;52.512;13.460;2023-07-02T11:41:36;12.80;;;5.13;;
50549;SDS011;36505;52.512;13.460;2023-07-02T11:44:05;12.95;;;5.50;;
50549;SDS011;36505;52.512;13.460;2023-07-02T11:46:31;17.40;;;6.45;;
50549;SDS011;36505;52.512;13.460;2023-07-02T11:48:56;16.55;;;6.15;;
50549;SDS011;36505;52.512;13.460;2023-07-02T11:51:21;15.10;;;5.10;;
50549;SDS011;36505;52.512;13.460;2023-07-02T11:53:47;19.23;;;5.93;;
50549;SDS011;36505;52.512;13.460;2023-07-02T11:56:13;15.75;;;5.82;;
50549;SDS011;36505;52.512;13.460;2023-07-02T11:58:39;14.13;;;6.28;;
50549;SDS011;36505;52.512;13.460;2023-07-02T12:01:06;18.02;;;5.32;;
50549;SDS011;36505;52.512;13.460;2023-07-02T12:03:31;10.88;;;4.85;;
50549;SDS011;36505;52.512;13.460;2023-07-02T12:05:57;16.17;;;5.55;;
50549;SDS011;36505;52.512;13.460;2023-07-02T12:08:22;18.35;;;5.15;;
50549;SDS011;36505;52.512;13.460;2023-07-02T12:10:47;14.98;;;5.70;;
50549;SDS011;36505;52.512;13.460;2023-07-02T12:13:13;16.55;;;5.75;;
50549;SDS011;36505;52.512;13.460;2023-07-02T12:15:38;15.60;;;5.45;;
50549;SDS011;36505;52.512;13.460;2023-07-02T12:18:04;20.30;;;5.25;;
50549;SDS011;36505;52.512;13.460;2023-07-02T12:20:29;17.13;;;5.95;;
50549;SDS011;36505;52.512;13.460;2023-07-02T12:22:55;9.57;;;4.78;;
50549;SDS011;36505;52.512;13.460;2023-07-02T12:25:21;14.73;;;5.18;;
50549;SDS011;36505;52.512;13.460;2023-07-02T12:27:46;15.77;;;5.82;;
50549;SDS011;36505;52.512;13.460;2023-07-02T12:30:11;13.90;;;5.22;;
50549;SDS011;36505;52.512;13.460;2023-07-02T12:32:40;17.30;;;5.75;;
50549;SDS011;36505;52.512;13.460;2023-07-02T12:35:05;15.80;;;6.38;;
50549;SDS011;36505;52.512;13.460;2023-07-02T12:37:31;15.07;;;5.97;;
50549;SDS011;36505;52.512;13.460;2023-07-02T12:39:57;12.35;;;4.93;;
50549;SDS011;36505;52.512;13.460;2023-07-02T12:42:22;15.75;;;5.13;;
50549;SDS011;36505;52.512;13.460;2023-07-02T12:44:47;15.63;;;4.95;;
50549;SDS011;36505;52.512;13.460;2023-07-02T12:47:13;24.05;;;6.07;;
50549;SDS011;36505;52.512;13.460;2023-07-02T12:49:38;12.32;;;5.00;;
50549;SDS011;36505;52.512;13.460;2023-07-02T12:52:03;11.85;;;5.15;;
50549;SDS011;36505;52.512;13.460;2023-07-02T12:54:29;22.50;;;6.10;;
50549;SDS011;36505;52.512;13.460;2023-07-02T12:56:54;15.38;;;5.53;;
50549;SDS011;36505;52.512;13.460;2023-07-02T12:59:20;12.65;;;5.80;;
50549;SDS011;36505;52.512;13.460;2023-07-02T13:01:45;13.15;;;5.43;;
50549;SDS011;36505;52.512;13.460;2023-07-02T13:04:11;12.30;;;5.65;;
50549;SDS011;36505;52.512;13.460;2023-07-02T13:06:36;18.10;;;6.07;;
50549;SDS011;36505;52.512;13.460;2023-07-02T13:09:05;14.88;;;5.72;;
50549;SDS011;36505;52.512;13.460;2023-07-02T13:11:31;14.02;;;5.00;;
50549;SDS011;36505;52.512;13.460;2023-07-02T13:13:57;18.02;;;6.05;;
50549;SDS011;36505;52.512;13.460;2023-07-02T13:16:22;14.80;;;6.35;;
50549;SDS011;36505;52.512;13.460;2023-07-02T13:18:49;17.20;;;5.70;;
50549;SDS011;36505;52.512;13.460;2023-07-02T13:21:14;13.77;;;6.28;;
50549;SDS011;36505;52.512;13.460;2023-07-02T13:23:40;12.38;;;5.50;;
50549;SDS011;36505;52.512;13.460;2023-07-02T13:26:05;15.85;;;5.93;;
50549;SDS011;36505;52.512;13.460;2023-07-02T13:28:31;20.67;;;6.25;;
50549;SDS011;36505;52.512;13.460;2023-07-02T13:30:56;23.73;;;5.68;;
50549;SDS011;36505;52.512;13.460;2023-07-02T13:33:22;15.98;;;5.13;;
50549;SDS011;36505;52.512;13.460;2023-07-02T13:35:47;15.10;;;5.97;;
50549;SDS011;36505;52.512;13.460;2023-07-02T13:38:13;13.07;;;5.70;;
50549;SDS011;36505;52.512;13.460;2023-07-02T13:40:38;14.70;;;5.28;;
50549;SDS011;36505;52.512;13.460;2023-07-02T13:43:04;16.98;;;4.85;;
50549;SDS011;36505;52.512;13.460;2023-07-02T13:45:29;17.33;;;5.65;;
50549;SDS011;36505;52.512;13.460;2023-07-02T13:47:54;14.93;;;5.57;;
50549;SDS011;36505;52.512;13.460;2023-07-02T13:50:20;16.50;;;5.80;;
50549;SDS011;36505;52.512;13.460;2023-07-02T13:52:45;15.73;;;6.13;;
50549;SDS011;36505;52.512;13.460;2023-07-02T13:55:11;13.25;;;5.47;;
50549;SDS011;36505;52.512;13.460;2023-07-02T13:57:37;20.45;;;7.13;;
50549;SDS011;36505;52.512;13.460;2023-07-02T14:00:03;11.55;;;5.30;;
50549;SDS011;36505;52.512;13.460;2023-07-02T14:02:29;14.55;;;5.78;;
50549;SDS011;36505;52.512;13.460;2023-07-02T14:04:56;14.68;;;5.88;;
50549;SDS011;36505;52.512;13.460;2023-07-02T14:07:23;19.52;;;5.60;;
50549;SDS011;36505;52.512;13.460;2023-07-02T14:09:48;22.70;;;6.25;;
50549;SDS011;36505;52.512;13.460;2023-07-02T14:12:14;16.15;;;6.13;;
50549;SDS011;36505;52.512;13.460;2023-07-02T14:14:40;13.70;;;5.65;;
50549;SDS011;36505;52.512;13.460;2023-07-02T14:17:05;16.92;;;6.80;;
50549;SDS011;36505;52.512;13.460;2023-07-02T14:19:32;18.10;;;6.10;;
50549;SDS011;36505;52.512;13.460;2023-07-02T14:21:57;19.70;;;6.22;;
50549;SDS011;36505;52.512;13.460;2023-07-02T14:24:23;20.10;;;6.28;;
50549;SDS011;36505;52.512;13.460;2023-07-02T14:26:48;16.67;;;7.00;;
50549;SDS011;36505;52.512;13.460;2023-07-02T14:29:14;15.18;;;5.80;;
50549;SDS011;36505;52.512;13.460;2023-07-02T14:31:39;14.15;;;6.20;;
50549;SDS011;36505;52.512;13.460;2023-07-02T14:34:04;20.10;;;6.53;;
50549;SDS011;36505;52.512;13.460;2023-07-02T14:36:30;18.40;;;6.07;;